sensor_id;sensor_type;location;lat;lon;timestamp;P1;durP1;ratioP1;P2;durP2;ratioP2
7971;SDS011;4031;49.758;6.120;2023-02-10T00:01:06;27.23;;;15.40;;
7971;SDS011;4031;49.758;6.120;2023-02-10T00:03:35;21.20;;;15.18;;
7971;SDS011;4031;49.758;6.120;2023-02-10T00:06:01;20.15;;;14.20;;
7971;SDS011;4031;49.758;6.120;2023-02-10T00:08:27;38.80;;;16.30;;
7971;SDS011;4031;49.758;6.120;2023-02-10T00:10:59;23.70;;;15.90;;
7971;SDS011;4031;49.758;6.120;2023-02-10T00:13:28;30.13;;;16.30;;
7971;SDS011;4031;49.758;6.120;2023-02-10T00:15:56;28.63;;;18.27;;
7971;SDS011;4031;49.758;6.120;2023-02-10T00:18:23;28.90;;;16.95;;
7971;SDS011;4031;49.758;6.120;2023-02-10T00:20:49;27.97;;;18.70;;
7971;SDS011;4031;49.758;6.120;2023-02-10T00:23:14;24.70;;;15.43;;
7971;SDS011;4031;49.758;6.120;2023-02-10T00:25:40;24.97;;;17.90;;
7971;SDS011;4031;49.758;6.120;2023-02-10T00:28:06;23.60;;;15.47;;
7971;SDS011;4031;49.758;6.120;2023-02-10T00:30:32;29.57;;;16.90;;
7971;SDS011;4031;49.758;6.120;2023-02-10T00:32:58;29.13;;;16.58;;
7971;SDS011;4031;49.758;6.120;2023-02-10T00:35:23;31.13;;;17.53;;
7971;SDS011;4031;49.758;6.120;2023-02-10T00:37:50;27.70;;;18.08;;
7971;SDS011;4031;49.758;6.120;2023-02-10T00:40:16;28.97;;;17.97;;
7971;SDS011;4031;49.758;6.120;2023-02-10T00:42:42;25.13;;;16.08;;
7971;SDS011;4031;49.758;6.120;2023-02-10T00:45:08;24.10;;;18.13;;
7971;SDS011;4031;49.758;6.120;2023-02-10T00:47:34;25.00;;;17.92;;
7971;SDS011;4031;49.758;6.120;2023-02-10T00:50:01;31.33;;;17.08;;
7971;SDS011;4031;49.758;6.120;2023-02-10T00:52:27;27.02;;;17.60;;
7971;SDS011;4031;49.758;6.120;2023-02-10T00:54:52;31.47;;;16.80;;
7971;SDS011;4031;49.758;6.120;2023-02-10T00:57:18;24.17;;;14.87;;
7971;SDS011;4031;49.758;6.120;2023-02-10T00:59:44;30.63;;;16.50;;
7971;SDS011;4031;49.758;6.120;2023-02-10T01:02:10;29.07;;;17.33;;
7971;SDS011;4031;49.758;6.120;2023-02-10T01:04:35;22.17;;;15.33;;
7971;SDS011;4031;49.758;6.120;2023-02-10T01:07:02;25.58;;;16.00;;
7971;SDS011;4031;49.758;6.120;2023-02-10T01:09:28;30.23;;;16.13;;
7971;SDS011;4031;49.758;6.120;2023-02-10T01:11:54;33.93;;;19.00;;
7971;SDS011;4031;49.758;6.120;2023-02-10T01:14:20;34.33;;;20.37;;
7971;SDS011;4031;49.758;6.120;2023-02-10T01:16:45;27.77;;;17.10;;
7971;SDS011;4031;49.758;6.120;2023-02-10T01:19:11;30.03;;;17.20;;
7971;SDS011;4031;49.758;6.120;2023-02-10T01:21:37;34.67;;;18.63;;
7971;SDS011;4031;49.758;6.120;2023-02-10T01:24:04;28.75;;;17.70;;
7971;SDS011;4031;49.758;6.120;2023-02-10T01:26:31;28.67;;;17.45;;
7971;SDS011;4031;49.758;6.120;2023-02-10T01:28:58;25.63;;;17.02;;
7971;SDS011;4031;49.758;6.120;2023-02-10T01:31:25;25.88;;;16.90;;
7971;SDS011;4031;49.758;6.120;2023-02-10T01:33:52;26.00;;;16.55;;
7971;SDS011;4031;49.758;6.120;2023-02-10T01:36:20;24.55;;;16.15;;
7971;SDS011;4031;49.758;6.120;2023-02-10T01:38:49;21.23;;;13.50;;
7971;SDS011;4031;49.758;6.120;2023-02-10T01:41:17;27.93;;;17.70;;
7971;SDS011;4031;49.758;6.120;2023-02-10T01:44:00;27.83;;;14.68;;
7971;SDS011;4031;49.758;6.120;2023-02-10T01:46:26;32.55;;;17.25;;
7971;SDS011;4031;49.758;6.120;2023-02-10T01:48:58;24.45;;;14.32;;
7971;SDS011;4031;49.758;6.120;2023-02-10T01:51:38;24.92;;;15.07;;
7971;SDS011;4031;49.758;6.120;2023-02-10T01:54:25;24.92;;;14.88;;
7971;SDS011;4031;49.758;6.120;2023-02-10T01:56:56;24.42;;;13.75;;
7971;SDS011;4031;49.758;6.120;2023-02-10T01:59:22;24.33;;;15.10;;
7971;SDS011;4031;49.758;6.120;2023-02-10T02:01:53;22.08;;;14.65;;
7971;SDS011;4031;49.758;6.120;2023-02-10T02:04:20;26.70;;;16.30;;
7971;SDS011;4031;49.758;6.120;2023-02-10T02:06:45;26.00;;;16.60;;
7971;SDS011;4031;49.758;6.120;2023-02-10T02:09:12;28.50;;;15.93;;
7971;SDS011;4031;49.758;6.120;2023-02-10T02:23:10;21.70;;;14.18;;
7971;SDS011;4031;49.758;6.120;2023-02-10T02:31:54;20.05;;;14.55;;
7971;SDS011;4031;49.758;6.120;2023-02-10T02:37:31;25.33;;;14.30;;
7971;SDS011;4031;49.758;6.120;2023-02-10T02:40:02;25.23;;;15.50;;
7971;SDS011;4031;49.758;6.120;2023-02-10T02:42:30;23.50;;;14.80;;
7971;SDS011;4031;49.758;6.120;2023-02-10T02:45:05;24.85;;;14.35;;
7971;SDS011;4031;49.758;6.120;2023-02-10T02:50:42;20.70;;;12.97;;
7971;SDS011;4031;49.758;6.120;2023-02-10T02:59:03;26.40;;;15.90;;
7971;SDS011;4031;49.758;6.120;2023-02-10T03:01:51;23.83;;;15.43;;
7971;SDS011;4031;49.758;6.120;2023-02-10T03:04:21;20.70;;;13.80;;
7971;SDS011;4031;49.758;6.120;2023-02-10T03:06:48;24.17;;;14.70;;
7971;SDS011;4031;49.758;6.120;2023-02-10T03:09:15;28.13;;;15.43;;
7971;SDS011;4031;49.758;6.120;2023-02-10T03:11:41;21.83;;;14.95;;
7971;SDS011;4031;49.758;6.120;2023-02-10T03:14:07;22.37;;;15.17;;
7971;SDS011;4031;49.758;6.120;2023-02-10T03:16:33;18.20;;;14.50;;
7971;SDS011;4031;49.758;6.120;2023-02-10T03:18:58;25.97;;;15.77;;
7971;SDS011;4031;49.758;6.120;2023-02-10T03:21:24;21.00;;;14.23;;
7971;SDS011;4031;49.758;6.120;2023-02-10T03:23:50;24.85;;;14.20;;
7971;SDS011;4031;49.758;6.120;2023-02-10T03:26:16;20.07;;;13.07;;
7971;SDS011;4031;49.758;6.120;2023-02-10T03:28:42;25.20;;;15.17;;
7971;SDS011;4031;49.758;6.120;2023-02-10T03:31:07;28.90;;;14.80;;
7971;SDS011;4031;49.758;6.120;2023-02-10T03:33:34;23.33;;;14.27;;
7971;SDS011;4031;49.758;6.120;2023-02-10T03:36:00;21.42;;;14.05;;
7971;SDS011;4031;49.758;6.120;2023-02-10T03:38:26;24.10;;;15.32;;
7971;SDS011;4031;49.758;6.120;2023-02-10T03:40:53;25.77;;;14.20;;
7971;SDS011;4031;49.758;6.120;2023-02-10T03:43:20;20.52;;;14.63;;
7971;SDS011;4031;49.758;6.120;2023-02-10T03:45:46;19.88;;;14.57;;
7971;SDS011;4031;49.758;6.120;2023-02-10T03:48:12;27.07;;;15.67;;
7971;SDS011;4031;49.758;6.120;2023-02-10T03:50:40;21.88;;;13.90;;
7971;SDS011;4031;49.758;6.120;2023-02-10T03:53:06;26.65;;;15.10;;
7971;SDS011;4031;49.758;6.120;2023-02-10T03:55:32;20.57;;;13.40;;
7971;SDS011;4031;49.758;6.120;2023-02-10T03:57:59;16.77;;;12.75;;
7971;SDS011;4031;49.758;6.120;2023-02-10T04:00:26;19.85;;;13.88;;
7971;SDS011;4031;49.758;6.120;2023-02-10T04:02:53;25.98;;;14.18;;
7971;SDS011;4031;49.758;6.120;2023-02-10T04:05:18;23.20;;;15.67;;
7971;SDS011;4031;49.758;6.120;2023-02-10T04:07:44;25.87;;;15.67;;
7971;SDS011;4031;49.758;6.120;2023-02-10T04:10:10;21.60;;;14.30;;
7971;SDS011;4031;49.758;6.120;2023-02-10T04:12:36;22.00;;;15.47;;
7971;SDS011;4031;49.758;6.120;2023-02-10T04:15:03;24.48;;;15.07;;
7971;SDS011;4031;49.758;6.120;2023-02-10T04:17:30;34.83;;;17.95;;
7971;SDS011;4031;49.758;6.120;2023-02-10T04:19:56;21.97;;;15.20;;
7971;SDS011;4031;49.758;6.120;2023-02-10T04:22:22;28.10;;;15.40;;
7971;SDS011;4031;49.758;6.120;2023-02-10T04:24:48;24.20;;;13.90;;
7971;SDS011;4031;49.758;6.120;2023-02-10T04:27:13;25.00;;;16.93;;
7971;SDS011;4031;49.758;6.120;2023-02-10T04:29:39;22.57;;;13.60;;
7971;SDS011;4031;49.758;6.120;2023-02-10T04:32:06;24.47;;;14.37;;
7971;SDS011;4031;49.758;6.120;2023-02-10T04:34:32;26.00;;;15.20;;
7971;SDS011;4031;49.758;6.120;2023-02-10T04:36:59;22.75;;;14.38;;
7971;SDS011;4031;49.758;6.120;2023-02-10T04:39:24;23.20;;;14.50;;
7971;SDS011;4031;49.758;6.120;2023-02-10T04:41:50;24.07;;;15.03;;
7971;SDS011;4031;49.758;6.120;2023-02-10T04:44:16;21.93;;;14.27;;
7971;SDS011;4031;49.758;6.120;2023-02-10T04:46:42;24.60;;;14.23;;
7971;SDS011;4031;49.758;6.120;2023-02-10T04:49:08;25.00;;;14.30;;
7971;SDS011;4031;49.758;6.120;2023-02-10T04:51:33;20.83;;;13.60;;
7971;SDS011;4031;49.758;6.120;2023-02-10T04:53:59;20.10;;;14.30;;
7971;SDS011;4031;49.758;6.120;2023-02-10T04:56:25;25.83;;;15.00;;
7971;SDS011;4031;49.758;6.120;2023-02-10T04:58:51;20.97;;;15.10;;
7971;SDS011;4031;49.758;6.120;2023-02-10T05:01:16;26.10;;;15.80;;
7971;SDS011;4031;49.758;6.120;2023-02-10T05:03:42;23.17;;;14.77;;
7971;SDS011;4031;49.758;6.120;2023-02-10T05:06:09;19.30;;;12.90;;
7971;SDS011;4031;49.758;6.120;2023-02-10T05:08:38;25.27;;;15.48;;
7971;SDS011;4031;49.758;6.120;2023-02-10T05:11:07;25.88;;;14.57;;
7971;SDS011;4031;49.758;6.120;2023-02-10T05:13:35;27.70;;;15.32;;
7971;SDS011;4031;49.758;6.120;2023-02-10T05:16:01;21.08;;;13.85;;
7971;SDS011;4031;49.758;6.120;2023-02-10T05:18:30;24.25;;;13.60;;
7971;SDS011;4031;49.758;6.120;2023-02-10T05:20:57;26.83;;;16.17;;
7971;SDS011;4031;49.758;6.120;2023-02-10T05:23:24;16.17;;;11.13;;
7971;SDS011;4031;49.758;6.120;2023-02-10T05:25:50;18.48;;;11.35;;
7971;SDS011;4031;49.758;6.120;2023-02-10T05:28:16;28.80;;;14.73;;
7971;SDS011;4031;49.758;6.120;2023-02-10T05:30:42;22.20;;;15.30;;
7971;SDS011;4031;49.758;6.120;2023-02-10T05:33:07;21.07;;;13.13;;
7971;SDS011;4031;49.758;6.120;2023-02-10T05:35:33;19.23;;;14.07;;
7971;SDS011;4031;49.758;6.120;2023-02-10T05:37:59;20.60;;;13.87;;
7971;SDS011;4031;49.758;6.120;2023-02-10T05:40:26;23.25;;;13.65;;
7971;SDS011;4031;49.758;6.120;2023-02-10T05:42:53;21.25;;;15.13;;
7971;SDS011;4031;49.758;6.120;2023-02-10T05:45:19;25.20;;;14.67;;
7971;SDS011;4031;49.758;6.120;2023-02-10T05:47:45;23.35;;;14.63;;
7971;SDS011;4031;49.758;6.120;2023-02-10T05:50:11;19.53;;;13.50;;
7971;SDS011;4031;49.758;6.120;2023-02-10T05:52:37;24.47;;;14.67;;
7971;SDS011;4031;49.758;6.120;2023-02-10T05:55:03;20.02;;;14.13;;
7971;SDS011;4031;49.758;6.120;2023-02-10T05:57:29;26.50;;;16.02;;
7971;SDS011;4031;49.758;6.120;2023-02-10T05:59:55;23.10;;;15.40;;
7971;SDS011;4031;49.758;6.120;2023-02-10T06:02:21;21.00;;;14.53;;
7971;SDS011;4031;49.758;6.120;2023-02-10T06:04:47;18.57;;;12.73;;
7971;SDS011;4031;49.758;6.120;2023-02-10T06:07:12;22.50;;;14.27;;
7971;SDS011;4031;49.758;6.120;2023-02-10T06:09:38;23.93;;;15.37;;
7971;SDS011;4031;49.758;6.120;2023-02-10T06:12:04;26.10;;;15.30;;
7971;SDS011;4031;49.758;6.120;2023-02-10T06:14:31;28.80;;;15.38;;
7971;SDS011;4031;49.758;6.120;2023-02-10T06:16:57;25.63;;;14.50;;
7971;SDS011;4031;49.758;6.120;2023-02-10T06:19:22;24.27;;;15.37;;
7971;SDS011;4031;49.758;6.120;2023-02-10T06:21:48;22.77;;;15.30;;
7971;SDS011;4031;49.758;6.120;2023-02-10T06:24:14;25.42;;;14.55;;
7971;SDS011;4031;49.758;6.120;2023-02-10T06:26:40;20.00;;;15.85;;
7971;SDS011;4031;49.758;6.120;2023-02-10T06:29:06;25.57;;;15.37;;
7971;SDS011;4031;49.758;6.120;2023-02-10T06:31:32;24.60;;;15.37;;
7971;SDS011;4031;49.758;6.120;2023-02-10T06:33:58;27.67;;;16.43;;
7971;SDS011;4031;49.758;6.120;2023-02-10T06:36:23;24.90;;;15.57;;
7971;SDS011;4031;49.758;6.120;2023-02-10T06:38:49;24.20;;;14.40;;
7971;SDS011;4031;49.758;6.120;2023-02-10T06:41:15;17.73;;;12.70;;
7971;SDS011;4031;49.758;6.120;2023-02-10T06:43:41;22.90;;;13.60;;
7971;SDS011;4031;49.758;6.120;2023-02-10T06:46:07;24.85;;;14.93;;
7971;SDS011;4031;49.758;6.120;2023-02-10T06:48:33;20.57;;;14.63;;
7971;SDS011;4031;49.758;6.120;2023-02-10T06:50:59;29.73;;;16.17;;
7971;SDS011;4031;49.758;6.120;2023-02-10T06:53:25;29.13;;;17.90;;
7971;SDS011;4031;49.758;6.120;2023-02-10T06:55:51;23.00;;;15.83;;
7971;SDS011;4031;49.758;6.120;2023-02-10T06:58:20;23.35;;;15.70;;
7971;SDS011;4031;49.758;6.120;2023-02-10T07:00:46;26.87;;;15.80;;
7971;SDS011;4031;49.758;6.120;2023-02-10T07:03:12;25.40;;;17.37;;
7971;SDS011;4031;49.758;6.120;2023-02-10T07:05:39;25.00;;;15.15;;
7971;SDS011;4031;49.758;6.120;2023-02-10T07:08:05;23.27;;;14.65;;
7971;SDS011;4031;49.758;6.120;2023-02-10T07:10:32;24.23;;;15.88;;
7971;SDS011;4031;49.758;6.120;2023-02-10T07:12:58;28.13;;;14.43;;
7971;SDS011;4031;49.758;6.120;2023-02-10T07:15:24;22.30;;;14.90;;
7971;SDS011;4031;49.758;6.120;2023-02-10T07:17:50;25.83;;;16.20;;
7971;SDS011;4031;49.758;6.120;2023-02-10T07:20:19;30.35;;;16.80;;
7971;SDS011;4031;49.758;6.120;2023-02-10T07:22:46;22.42;;;16.50;;
7971;SDS011;4031;49.758;6.120;2023-02-10T07:25:12;27.50;;;16.20;;
7971;SDS011;4031;49.758;6.120;2023-02-10T07:27:38;25.13;;;16.53;;
7971;SDS011;4031;49.758;6.120;2023-02-10T07:30:04;29.50;;;18.77;;
7971;SDS011;4031;49.758;6.120;2023-02-10T07:32:30;26.70;;;16.75;;
7971;SDS011;4031;49.758;6.120;2023-02-10T07:34:56;28.13;;;17.17;;
7971;SDS011;4031;49.758;6.120;2023-02-10T07:37:21;30.67;;;17.17;;
7971;SDS011;4031;49.758;6.120;2023-02-10T07:39:47;24.47;;;16.70;;
7971;SDS011;4031;49.758;6.120;2023-02-10T07:42:13;23.20;;;15.60;;
7971;SDS011;4031;49.758;6.120;2023-02-10T07:44:39;27.03;;;16.60;;
7971;SDS011;4031;49.758;6.120;2023-02-10T07:47:04;29.60;;;18.90;;
7971;SDS011;4031;49.758;6.120;2023-02-10T07:49:31;23.60;;;16.63;;
7971;SDS011;4031;49.758;6.120;2023-02-10T07:51:57;26.77;;;16.20;;
7971;SDS011;4031;49.758;6.120;2023-02-10T07:54:23;30.60;;;18.90;;
7971;SDS011;4031;49.758;6.120;2023-02-10T07:56:49;28.00;;;16.00;;
7971;SDS011;4031;49.758;6.120;2023-02-10T07:59:15;31.37;;;17.83;;
7971;SDS011;4031;49.758;6.120;2023-02-10T08:01:41;24.50;;;16.50;;
7971;SDS011;4031;49.758;6.120;2023-02-10T08:04:11;22.17;;;15.63;;
7971;SDS011;4031;49.758;6.120;2023-02-10T08:06:37;23.45;;;15.57;;
7971;SDS011;4031;49.758;6.120;2023-02-10T08:09:04;20.23;;;14.40;;
7971;SDS011;4031;49.758;6.120;2023-02-10T08:11:31;21.37;;;14.97;;
7971;SDS011;4031;49.758;6.120;2023-02-10T08:13:57;25.77;;;15.53;;
7971;SDS011;4031;49.758;6.120;2023-02-10T08:16:24;26.17;;;16.70;;
7971;SDS011;4031;49.758;6.120;2023-02-10T08:18:50;25.40;;;15.80;;
7971;SDS011;4031;49.758;6.120;2023-02-10T08:21:15;30.33;;;16.83;;
7971;SDS011;4031;49.758;6.120;2023-02-10T08:23:41;24.43;;;16.63;;
7971;SDS011;4031;49.758;6.120;2023-02-10T08:26:08;24.60;;;16.70;;
7971;SDS011;4031;49.758;6.120;2023-02-10T08:28:36;30.87;;;17.30;;
7971;SDS011;4031;49.758;6.120;2023-02-10T08:31:03;27.30;;;17.47;;
7971;SDS011;4031;49.758;6.120;2023-02-10T08:33:35;28.20;;;17.33;;
7971;SDS011;4031;49.758;6.120;2023-02-10T08:36:05;28.27;;;17.60;;
7971;SDS011;4031;49.758;6.120;2023-02-10T08:38:36;27.70;;;14.87;;
7971;SDS011;4031;49.758;6.120;2023-02-10T08:41:03;26.90;;;16.57;;
7971;SDS011;4031;49.758;6.120;2023-02-10T08:43:29;29.73;;;17.40;;
7971;SDS011;4031;49.758;6.120;2023-02-10T08:45:56;22.43;;;15.70;;
7971;SDS011;4031;49.758;6.120;2023-02-10T08:48:24;22.10;;;15.90;;
7971;SDS011;4031;49.758;6.120;2023-02-10T08:50:50;27.57;;;18.37;;
7971;SDS011;4031;49.758;6.120;2023-02-10T08:53:16;25.60;;;17.73;;
7971;SDS011;4031;49.758;6.120;2023-02-10T08:55:42;27.40;;;17.50;;
7971;SDS011;4031;49.758;6.120;2023-02-10T08:58:08;25.07;;;17.13;;
7971;SDS011;4031;49.758;6.120;2023-02-10T09:00:34;26.30;;;17.77;;
7971;SDS011;4031;49.758;6.120;2023-02-10T09:03:00;26.87;;;17.87;;
7971;SDS011;4031;49.758;6.120;2023-02-10T09:05:26;28.60;;;18.00;;
7971;SDS011;4031;49.758;6.120;2023-02-10T09:07:52;28.13;;;19.17;;
7971;SDS011;4031;49.758;6.120;2023-02-10T09:10:18;35.67;;;21.30;;
7971;SDS011;4031;49.758;6.120;2023-02-10T09:12:43;39.63;;;20.47;;
7971;SDS011;4031;49.758;6.120;2023-02-10T09:15:11;37.87;;;22.70;;
7971;SDS011;4031;49.758;6.120;2023-02-10T09:17:36;42.10;;;21.57;;
7971;SDS011;4031;49.758;6.120;2023-02-10T09:20:03;31.30;;;22.87;;
7971;SDS011;4031;49.758;6.120;2023-02-10T09:22:30;33.80;;;19.50;;
7971;SDS011;4031;49.758;6.120;2023-02-10T09:24:55;37.97;;;21.70;;
7971;SDS011;4031;49.758;6.120;2023-02-10T09:27:21;37.47;;;22.43;;
7971;SDS011;4031;49.758;6.120;2023-02-10T09:29:47;30.73;;;20.97;;
7971;SDS011;4031;49.758;6.120;2023-02-10T09:32:13;31.47;;;20.00;;
7971;SDS011;4031;49.758;6.120;2023-02-10T09:34:39;39.17;;;22.00;;
7971;SDS011;4031;49.758;6.120;2023-02-10T09:37:05;37.70;;;21.20;;
7971;SDS011;4031;49.758;6.120;2023-02-10T09:39:32;32.23;;;20.97;;
7971;SDS011;4031;49.758;6.120;2023-02-10T09:42:08;33.27;;;19.83;;
7971;SDS011;4031;49.758;6.120;2023-02-10T09:44:38;34.80;;;21.87;;
7971;SDS011;4031;49.758;6.120;2023-02-10T09:50:14;31.23;;;19.27;;
7971;SDS011;4031;49.758;6.120;2023-02-10T09:53:07;27.90;;;18.33;;
7971;SDS011;4031;49.758;6.120;2023-02-10T09:58:26;33.17;;;20.60;;
7971;SDS011;4031;49.758;6.120;2023-02-10T10:01:05;33.63;;;20.87;;
7971;SDS011;4031;49.758;6.120;2023-02-10T10:06:36;30.40;;;18.83;;
7971;SDS011;4031;49.758;6.120;2023-02-10T10:11:37;34.20;;;20.93;;
7971;SDS011;4031;49.758;6.120;2023-02-10T10:14:23;43.10;;;21.97;;
7971;SDS011;4031;49.758;6.120;2023-02-10T10:28:57;38.67;;;21.80;;
7971;SDS011;4031;49.758;6.120;2023-02-10T10:31:46;38.70;;;21.53;;
7971;SDS011;4031;49.758;6.120;2023-02-10T10:34:20;42.77;;;21.13;;
7971;SDS011;4031;49.758;6.120;2023-02-10T10:36:51;38.67;;;23.67;;
7971;SDS011;4031;49.758;6.120;2023-02-10T10:39:31;38.93;;;21.90;;
7971;SDS011;4031;49.758;6.120;2023-02-10T10:42:18;41.43;;;21.77;;
7971;SDS011;4031;49.758;6.120;2023-02-10T10:45:22;33.47;;;21.57;;
7971;SDS011;4031;49.758;6.120;2023-02-10T10:47:55;37.23;;;20.57;;
7971;SDS011;4031;49.758;6.120;2023-02-10T10:50:51;39.40;;;21.30;;
7971;SDS011;4031;49.758;6.120;2023-02-10T10:56:03;41.60;;;22.70;;
7971;SDS011;4031;49.758;6.120;2023-02-10T10:58:50;45.30;;;22.43;;
7971;SDS011;4031;49.758;6.120;2023-02-10T11:01:29;37.60;;;20.80;;
7971;SDS011;4031;49.758;6.120;2023-02-10T11:04:05;33.60;;;20.87;;
7971;SDS011;4031;49.758;6.120;2023-02-10T11:06:44;39.93;;;22.60;;
7971;SDS011;4031;49.758;6.120;2023-02-10T11:11:49;48.97;;;23.70;;
7971;SDS011;4031;49.758;6.120;2023-02-10T11:16:51;47.50;;;25.63;;
7971;SDS011;4031;49.758;6.120;2023-02-10T11:19:26;46.60;;;24.37;;
7971;SDS011;4031;49.758;6.120;2023-02-10T11:21:55;49.43;;;23.80;;
7971;SDS011;4031;49.758;6.120;2023-02-10T11:24:23;48.50;;;23.23;;
7971;SDS011;4031;49.758;6.120;2023-02-10T11:27:02;53.27;;;23.73;;
7971;SDS011;4031;49.758;6.120;2023-02-10T11:29:40;46.77;;;24.17;;
7971;SDS011;4031;49.758;6.120;2023-02-10T11:35:14;52.87;;;22.57;;
7971;SDS011;4031;49.758;6.120;2023-02-10T11:37:41;47.70;;;22.73;;
7971;SDS011;4031;49.758;6.120;2023-02-10T11:40:27;43.07;;;24.27;;
7971;SDS011;4031;49.758;6.120;2023-02-10T11:43:37;42.80;;;22.07;;
7971;SDS011;4031;49.758;6.120;2023-02-10T11:46:22;46.60;;;22.43;;
7971;SDS011;4031;49.758;6.120;2023-02-10T11:51:25;51.20;;;23.27;;
7971;SDS011;4031;49.758;6.120;2023-02-10T11:53:52;47.30;;;23.70;;
7971;SDS011;4031;49.758;6.120;2023-02-10T11:56:38;50.67;;;24.60;;
7971;SDS011;4031;49.758;6.120;2023-02-10T12:17:31;40.57;;;19.50;;
7971;SDS011;4031;49.758;6.120;2023-02-10T12:20:15;44.63;;;24.37;;
7971;SDS011;4031;49.758;6.120;2023-02-10T12:26:23;48.23;;;23.50;;
7971;SDS011;4031;49.758;6.120;2023-02-10T12:32:03;42.37;;;22.03;;
7971;SDS011;4031;49.758;6.120;2023-02-10T12:37:27;38.10;;;22.47;;
7971;SDS011;4031;49.758;6.120;2023-02-10T12:40:14;51.17;;;23.37;;
7971;SDS011;4031;49.758;6.120;2023-02-10T12:52:43;45.13;;;21.40;;
7971;SDS011;4031;49.758;6.120;2023-02-10T12:55:21;38.27;;;19.77;;
7971;SDS011;4031;49.758;6.120;2023-02-10T13:03:03;39.90;;;19.90;;
7971;SDS011;4031;49.758;6.120;2023-02-10T13:08:47;31.77;;;19.83;;
7971;SDS011;4031;49.758;6.120;2023-02-10T13:11:27;31.57;;;20.53;;
7971;SDS011;4031;49.758;6.120;2023-02-10T13:14:04;37.00;;;20.60;;
7971;SDS011;4031;49.758;6.120;2023-02-10T13:16:39;36.30;;;20.60;;
7971;SDS011;4031;49.758;6.120;2023-02-10T13:19:14;33.03;;;18.83;;
7971;SDS011;4031;49.758;6.120;2023-02-10T13:22:13;35.60;;;21.07;;
7971;SDS011;4031;49.758;6.120;2023-02-10T13:36:24;29.70;;;18.27;;
7971;SDS011;4031;49.758;6.120;2023-02-10T13:41:45;32.20;;;17.60;;
7971;SDS011;4031;49.758;6.120;2023-02-10T13:44:19;29.93;;;19.07;;
7971;SDS011;4031;49.758;6.120;2023-02-10T13:47:10;35.77;;;18.47;;
7971;SDS011;4031;49.758;6.120;2023-02-10T13:49:59;34.73;;;18.03;;
7971;SDS011;4031;49.758;6.120;2023-02-10T13:52:32;31.23;;;18.70;;
7971;SDS011;4031;49.758;6.120;2023-02-10T13:57:35;30.87;;;17.97;;
7971;SDS011;4031;49.758;6.120;2023-02-10T14:02:41;34.27;;;19.67;;
7971;SDS011;4031;49.758;6.120;2023-02-10T14:05:31;32.90;;;19.43;;
7971;SDS011;4031;49.758;6.120;2023-02-10T14:08:11;32.67;;;17.73;;
7971;SDS011;4031;49.758;6.120;2023-02-10T14:11:02;35.57;;;19.53;;
7971;SDS011;4031;49.758;6.120;2023-02-10T14:13:31;29.03;;;18.70;;
7971;SDS011;4031;49.758;6.120;2023-02-10T14:16:04;38.07;;;20.10;;
7971;SDS011;4031;49.758;6.120;2023-02-10T14:18:39;33.00;;;20.03;;
7971;SDS011;4031;49.758;6.120;2023-02-10T14:21:09;32.90;;;20.07;;
7971;SDS011;4031;49.758;6.120;2023-02-10T14:23:39;31.70;;;18.60;;
7971;SDS011;4031;49.758;6.120;2023-02-10T14:26:19;31.00;;;19.90;;
7971;SDS011;4031;49.758;6.120;2023-02-10T14:28:55;32.30;;;18.23;;
7971;SDS011;4031;49.758;6.120;2023-02-10T14:31:33;30.40;;;16.20;;
7971;SDS011;4031;49.758;6.120;2023-02-10T14:34:05;29.83;;;16.23;;
7971;SDS011;4031;49.758;6.120;2023-02-10T14:36:54;28.83;;;16.93;;
7971;SDS011;4031;49.758;6.120;2023-02-10T14:39:24;26.30;;;16.87;;
7971;SDS011;4031;49.758;6.120;2023-02-10T14:41:55;35.03;;;18.50;;
7971;SDS011;4031;49.758;6.120;2023-02-10T14:44:34;26.17;;;17.13;;
7971;SDS011;4031;49.758;6.120;2023-02-10T14:47:14;22.00;;;15.57;;
7971;SDS011;4031;49.758;6.120;2023-02-10T14:49:51;27.47;;;17.13;;
7971;SDS011;4031;49.758;6.120;2023-02-10T14:53:04;25.57;;;16.17;;
7971;SDS011;4031;49.758;6.120;2023-02-10T14:55:22;29.63;;;15.53;;
7971;SDS011;4031;49.758;6.120;2023-02-10T15:00:39;27.03;;;15.87;;
7971;SDS011;4031;49.758;6.120;2023-02-10T15:03:17;26.00;;;16.33;;
7971;SDS011;4031;49.758;6.120;2023-02-10T15:05:45;21.83;;;15.47;;
7971;SDS011;4031;49.758;6.120;2023-02-10T15:08:16;23.73;;;15.67;;
7971;SDS011;4031;49.758;6.120;2023-02-10T15:10:47;29.47;;;17.37;;
7971;SDS011;4031;49.758;6.120;2023-02-10T15:13:18;20.87;;;14.57;;
7971;SDS011;4031;49.758;6.120;2023-02-10T15:15:50;20.83;;;14.80;;
7971;SDS011;4031;49.758;6.120;2023-02-10T15:18:21;29.00;;;19.20;;
7971;SDS011;4031;49.758;6.120;2023-02-10T15:20:56;27.20;;;16.47;;
7971;SDS011;4031;49.758;6.120;2023-02-10T15:23:23;28.83;;;16.50;;
7971;SDS011;4031;49.758;6.120;2023-02-10T15:28:42;24.73;;;16.90;;
7971;SDS011;4031;49.758;6.120;2023-02-10T15:46:44;24.97;;;17.10;;
7971;SDS011;4031;49.758;6.120;2023-02-10T15:49:16;25.57;;;17.10;;
7971;SDS011;4031;49.758;6.120;2023-02-10T15:51:45;30.77;;;17.47;;
7971;SDS011;4031;49.758;6.120;2023-02-10T15:54:15;25.60;;;17.03;;
7971;SDS011;4031;49.758;6.120;2023-02-10T15:56:53;25.83;;;17.23;;
7971;SDS011;4031;49.758;6.120;2023-02-10T15:59:24;26.97;;;16.80;;
7971;SDS011;4031;49.758;6.120;2023-02-10T16:01:55;24.73;;;18.20;;
7971;SDS011;4031;49.758;6.120;2023-02-10T16:04:23;31.00;;;18.17;;
7971;SDS011;4031;49.758;6.120;2023-02-10T16:06:50;29.43;;;16.97;;
7971;SDS011;4031;49.758;6.120;2023-02-10T16:09:16;30.10;;;16.80;;
7971;SDS011;4031;49.758;6.120;2023-02-10T16:11:42;30.23;;;17.60;;
7971;SDS011;4031;49.758;6.120;2023-02-10T16:14:09;26.60;;;16.50;;
7971;SDS011;4031;49.758;6.120;2023-02-10T16:16:36;29.17;;;16.70;;
7971;SDS011;4031;49.758;6.120;2023-02-10T16:19:09;26.63;;;18.07;;
7971;SDS011;4031;49.758;6.120;2023-02-10T16:21:38;31.00;;;17.13;;
7971;SDS011;4031;49.758;6.120;2023-02-10T16:24:04;28.00;;;17.23;;
7971;SDS011;4031;49.758;6.120;2023-02-10T16:26:29;29.40;;;17.33;;
7971;SDS011;4031;49.758;6.120;2023-02-10T16:28:55;29.20;;;18.23;;
7971;SDS011;4031;49.758;6.120;2023-02-10T16:31:21;34.07;;;18.60;;
7971;SDS011;4031;49.758;6.120;2023-02-10T16:33:47;26.53;;;16.97;;
7971;SDS011;4031;49.758;6.120;2023-02-10T16:36:14;27.77;;;17.43;;
7971;SDS011;4031;49.758;6.120;2023-02-10T16:38:42;28.17;;;17.97;;
7971;SDS011;4031;49.758;6.120;2023-02-10T16:41:08;39.10;;;19.00;;
7971;SDS011;4031;49.758;6.120;2023-02-10T16:43:35;28.87;;;19.37;;
7971;SDS011;4031;49.758;6.120;2023-02-10T16:46:01;33.27;;;18.27;;
7971;SDS011;4031;49.758;6.120;2023-02-10T16:48:27;34.27;;;19.70;;
7971;SDS011;4031;49.758;6.120;2023-02-10T16:50:53;31.90;;;18.43;;
7971;SDS011;4031;49.758;6.120;2023-02-10T16:53:19;35.93;;;18.20;;
7971;SDS011;4031;49.758;6.120;2023-02-10T16:55:44;25.77;;;16.47;;
7971;SDS011;4031;49.758;6.120;2023-02-10T16:58:14;32.60;;;17.70;;
7971;SDS011;4031;49.758;6.120;2023-02-10T17:00:41;30.47;;;19.40;;
7971;SDS011;4031;49.758;6.120;2023-02-10T17:03:08;30.10;;;16.83;;
7971;SDS011;4031;49.758;6.120;2023-02-10T17:05:34;31.00;;;19.13;;
7971;SDS011;4031;49.758;6.120;2023-02-10T17:08:02;31.57;;;17.80;;
7971;SDS011;4031;49.758;6.120;2023-02-10T17:10:29;30.30;;;18.70;;
7971;SDS011;4031;49.758;6.120;2023-02-10T17:12:56;28.20;;;16.80;;
7971;SDS011;4031;49.758;6.120;2023-02-10T17:15:22;37.23;;;19.93;;
7971;SDS011;4031;49.758;6.120;2023-02-10T17:17:48;34.03;;;18.53;;
7971;SDS011;4031;49.758;6.120;2023-02-10T17:22:43;37.57;;;20.10;;
7971;SDS011;4031;49.758;6.120;2023-02-10T17:25:09;29.23;;;18.17;;
7971;SDS011;4031;49.758;6.120;2023-02-10T17:27:35;32.20;;;18.60;;
7971;SDS011;4031;49.758;6.120;2023-02-10T17:30:01;30.50;;;18.17;;
7971;SDS011;4031;49.758;6.120;2023-02-10T17:32:27;36.57;;;19.53;;
7971;SDS011;4031;49.758;6.120;2023-02-10T17:34:53;43.20;;;23.67;;
7971;SDS011;4031;49.758;6.120;2023-02-10T17:37:18;31.77;;;18.83;;